BKV315 UKLN-UKLU
Flight info
| Callsign | BKV315 |
|---|---|
| Flight time | 0h 36m |
| Altitude | 20000 |
| Route | POBED DCT 4837N02341E DCT TAKON |
| Aircraft | A321/M-SDE3FGHIRWY/LB1 |
Departure
| Time | 2026-05-01 11:35 |
|---|---|
| Airport | Chernivtsi International Airport (UKLN) |
Arrival
| Time | 2026-05-01 12:12 |
|---|---|
| Airport | Uzhhorod International Airport (UKLU) |
| Time | Latitude | Longitude | Altitude | Speed | Heading |
|---|---|---|---|---|---|
| 2026-05-01 11:12 | 48.26820 | 25.96942 | 829 ft | 0 kts | 251° |
| 2026-05-01 11:29 | 48.26819 | 25.96941 | 829 ft | 0 kts | 251° |
| 2026-05-01 11:29 | 48.26817 | 25.96933 | 829 ft | 1 kts | 245° |
| 2026-05-01 11:29 | 48.26774 | 25.96907 | 829 ft | 5 kts | 174° |
| 2026-05-01 11:30 | 48.26725 | 25.96920 | 829 ft | 7 kts | 157° |
| 2026-05-01 11:30 | 48.26706 | 25.97004 | 829 ft | 10 kts | 88° |
| 2026-05-01 11:30 | 48.26717 | 25.97121 | 829 ft | 12 kts | 81° |
| 2026-05-01 11:30 | 48.26731 | 25.97259 | 829 ft | 14 kts | 81° |
| 2026-05-01 11:31 | 48.26719 | 25.97405 | 829 ft | 15 kts | 136° |
| 2026-05-01 11:31 | 48.26620 | 25.97490 | 829 ft | 18 kts | 153° |
| 2026-05-01 11:31 | 48.26493 | 25.97587 | 829 ft | 22 kts | 153° |
| 2026-05-01 11:31 | 48.26344 | 25.97700 | 829 ft | 25 kts | 153° |
| 2026-05-01 11:32 | 48.26176 | 25.97826 | 829 ft | 28 kts | 153° |
| 2026-05-01 11:32 | 48.25991 | 25.97959 | 829 ft | 30 kts | 155° |
| 2026-05-01 11:32 | 48.25795 | 25.98114 | 829 ft | 32 kts | 152° |
| 2026-05-01 11:32 | 48.25587 | 25.98274 | 829 ft | 34 kts | 153° |
| 2026-05-01 11:33 | 48.25367 | 25.98442 | 829 ft | 36 kts | 153° |
| 2026-05-01 11:33 | 48.25205 | 25.98563 | 829 ft | 13 kts | 156° |
| 2026-05-01 11:33 | 48.25109 | 25.98575 | 829 ft | 14 kts | 173° |
| 2026-05-01 11:33 | 48.25093 | 25.98646 | 829 ft | 13 kts | 343° |
| 2026-05-01 11:34 | 48.25150 | 25.98606 | 829 ft | 0 kts | 333° |
| 2026-05-01 11:34 | 48.25151 | 25.98605 | 829 ft | 0 kts | 332° |
| 2026-05-01 11:34 | 48.25321 | 25.98475 | 829 ft | 70 kts | 333° |
| 2026-05-01 11:34 | 48.26020 | 25.97946 | 830 ft | 151 kts | 333° |
| 2026-05-01 11:35 | 48.27088 | 25.97144 | 1263 ft | 181 kts | 332° |
| 2026-05-01 11:35 | 48.28167 | 25.96320 | 2299 ft | 178 kts | 332° |
| 2026-05-01 11:35 | 48.29221 | 25.95507 | 3199 ft | 170 kts | 332° |
| 2026-05-01 11:35 | 48.30309 | 25.94670 | 3576 ft | 185 kts | 331° |
| 2026-05-01 11:36 | 48.31510 | 25.93748 | 3900 ft | 204 kts | 332° |
| 2026-05-01 11:36 | 48.32845 | 25.92721 | 4272 ft | 224 kts | 332° |
| 2026-05-01 11:36 | 48.34261 | 25.91578 | 4689 ft | 242 kts | 328° |
| 2026-05-01 11:36 | 48.35705 | 25.90091 | 5123 ft | 259 kts | 320° |
| 2026-05-01 11:37 | 48.37066 | 25.88232 | 5767 ft | 266 kts | 315° |
| 2026-05-01 11:37 | 48.38430 | 25.86341 | 6539 ft | 269 kts | 319° |
| 2026-05-01 11:37 | 48.39872 | 25.84546 | 7265 ft | 272 kts | 320° |
| 2026-05-01 11:37 | 48.41337 | 25.82772 | 7971 ft | 276 kts | 321° |
| 2026-05-01 11:38 | 48.42837 | 25.80970 | 8674 ft | 279 kts | 321° |
| 2026-05-01 11:38 | 48.44367 | 25.79135 | 9366 ft | 282 kts | 321° |
| 2026-05-01 11:38 | 48.45904 | 25.77291 | 10045 ft | 286 kts | 321° |
| 2026-05-01 11:38 | 48.47480 | 25.75399 | 10551 ft | 296 kts | 321° |
| 2026-05-01 11:39 | 48.49135 | 25.73410 | 10850 ft | 313 kts | 321° |
| 2026-05-01 11:39 | 48.50875 | 25.71317 | 11138 ft | 329 kts | 321° |
| 2026-05-01 11:39 | 48.52697 | 25.69129 | 11411 ft | 344 kts | 321° |
| 2026-05-01 11:39 | 48.54591 | 25.66853 | 11708 ft | 357 kts | 321° |
| 2026-05-01 11:40 | 48.56562 | 25.64481 | 12239 ft | 362 kts | 321° |
| 2026-05-01 11:40 | 48.58514 | 25.62128 | 12844 ft | 365 kts | 321° |
| 2026-05-01 11:40 | 48.60501 | 25.59728 | 13424 ft | 368 kts | 321° |
| 2026-05-01 11:40 | 48.62508 | 25.57300 | 13985 ft | 371 kts | 321° |
| 2026-05-01 11:41 | 48.64510 | 25.54874 | 14531 ft | 374 kts | 321° |
| 2026-05-01 11:41 | 48.66531 | 25.52422 | 15069 ft | 377 kts | 321° |
| 2026-05-01 11:41 | 48.68584 | 25.49930 | 15596 ft | 380 kts | 321° |
| 2026-05-01 11:41 | 48.70456 | 25.47106 | 16071 ft | 383 kts | 305° |
| 2026-05-01 11:42 | 48.71589 | 25.43495 | 16561 ft | 383 kts | 284° |
| 2026-05-01 11:42 | 48.71833 | 25.39470 | 17071 ft | 384 kts | 267° |
| 2026-05-01 11:42 | 48.71636 | 25.35472 | 17578 ft | 386 kts | 265° |
| 2026-05-01 11:42 | 48.71392 | 25.31401 | 18037 ft | 389 kts | 264° |
| 2026-05-01 11:43 | 48.71149 | 25.27324 | 18495 ft | 392 kts | 264° |
| 2026-05-01 11:43 | 48.70911 | 25.23192 | 18956 ft | 394 kts | 264° |
| 2026-05-01 11:43 | 48.70679 | 25.19044 | 19405 ft | 397 kts | 264° |
| 2026-05-01 11:44 | 48.70222 | 25.10702 | 20211 ft | 401 kts | 264° |
| 2026-05-01 11:44 | 48.69992 | 25.06495 | 20286 ft | 401 kts | 264° |
| 2026-05-01 11:44 | 48.69760 | 25.02268 | 20289 ft | 400 kts | 264° |
| 2026-05-01 11:44 | 48.69531 | 24.98100 | 20290 ft | 400 kts | 264° |
| 2026-05-01 11:45 | 48.69297 | 24.93871 | 20291 ft | 400 kts | 264° |
| 2026-05-01 11:45 | 48.69067 | 24.89713 | 20291 ft | 400 kts | 264° |
| 2026-05-01 11:45 | 48.68832 | 24.85504 | 20291 ft | 400 kts | 264° |
| 2026-05-01 11:45 | 48.68597 | 24.81336 | 20291 ft | 400 kts | 264° |
| 2026-05-01 11:46 | 48.68358 | 24.77118 | 20291 ft | 401 kts | 264° |
| 2026-05-01 11:46 | 48.68117 | 24.72887 | 20291 ft | 401 kts | 264° |
| 2026-05-01 11:46 | 48.67876 | 24.68685 | 20291 ft | 401 kts | 264° |
| 2026-05-01 11:46 | 48.67637 | 24.64531 | 20291 ft | 401 kts | 264° |
| 2026-05-01 11:47 | 48.67392 | 24.60313 | 20291 ft | 401 kts | 264° |
| 2026-05-01 11:47 | 48.67147 | 24.56122 | 20291 ft | 401 kts | 264° |
| 2026-05-01 11:47 | 48.66900 | 24.51918 | 20291 ft | 401 kts | 264° |
| 2026-05-01 11:47 | 48.66651 | 24.47710 | 20291 ft | 401 kts | 264° |
| 2026-05-01 11:48 | 48.66401 | 24.43510 | 20291 ft | 401 kts | 264° |
| 2026-05-01 11:48 | 48.66149 | 24.39312 | 20291 ft | 401 kts | 264° |
| 2026-05-01 11:48 | 48.65897 | 24.35129 | 20291 ft | 401 kts | 264° |
| 2026-05-01 11:48 | 48.65640 | 24.30901 | 20291 ft | 401 kts | 264° |
| 2026-05-01 11:49 | 48.65385 | 24.26707 | 20291 ft | 401 kts | 263° |
| 2026-05-01 11:49 | 48.65126 | 24.22494 | 20291 ft | 401 kts | 264° |
| 2026-05-01 11:49 | 48.64867 | 24.18286 | 20291 ft | 401 kts | 264° |
| 2026-05-01 11:49 | 48.64607 | 24.14105 | 20291 ft | 401 kts | 264° |
| 2026-05-01 11:50 | 48.64343 | 24.09883 | 20291 ft | 401 kts | 264° |
| 2026-05-01 11:50 | 48.64082 | 24.05718 | 20291 ft | 401 kts | 263° |
| 2026-05-01 11:50 | 48.63815 | 24.01497 | 20291 ft | 401 kts | 264° |
| 2026-05-01 11:50 | 48.63549 | 23.97321 | 20291 ft | 401 kts | 263° |
| 2026-05-01 11:51 | 48.63282 | 23.93137 | 20291 ft | 401 kts | 264° |
| 2026-05-01 11:51 | 48.63011 | 23.88928 | 20291 ft | 401 kts | 264° |
| 2026-05-01 11:51 | 48.62740 | 23.84741 | 20291 ft | 401 kts | 264° |
| 2026-05-01 11:51 | 48.62465 | 23.80515 | 20291 ft | 401 kts | 263° |
| 2026-05-01 11:52 | 48.62192 | 23.76369 | 20291 ft | 401 kts | 264° |
| 2026-05-01 11:52 | 48.61911 | 23.72154 | 20290 ft | 401 kts | 263° |
| 2026-05-01 11:52 | 48.61520 | 23.67994 | 20291 ft | 401 kts | 259° |
| 2026-05-01 11:52 | 48.60958 | 23.63851 | 20291 ft | 400 kts | 256° |
| 2026-05-01 11:53 | 48.60320 | 23.59801 | 20291 ft | 401 kts | 256° |
| 2026-05-01 11:53 | 48.59665 | 23.55714 | 19991 ft | 401 kts | 256° |
| 2026-05-01 11:53 | 48.59005 | 23.51619 | 19484 ft | 398 kts | 256° |
| 2026-05-01 11:53 | 48.58353 | 23.47582 | 19017 ft | 393 kts | 256° |
| 2026-05-01 11:54 | 48.57713 | 23.43620 | 18568 ft | 389 kts | 256° |
| 2026-05-01 11:54 | 48.57075 | 23.39678 | 18128 ft | 384 kts | 256° |
| 2026-05-01 11:54 | 48.56445 | 23.35795 | 17695 ft | 380 kts | 256° |
| 2026-05-01 11:54 | 48.55814 | 23.31922 | 17264 ft | 376 kts | 255° |
| 2026-05-01 11:55 | 48.55188 | 23.28083 | 16836 ft | 373 kts | 255° |
| 2026-05-01 11:55 | 48.54572 | 23.24309 | 16418 ft | 369 kts | 255° |
| 2026-05-01 11:55 | 48.54097 | 23.20553 | 15989 ft | 367 kts | 263° |
| 2026-05-01 11:55 | 48.53997 | 23.16691 | 15540 ft | 365 kts | 271° |
| 2026-05-01 11:56 | 48.54261 | 23.12903 | 14996 ft | 367 kts | 277° |
| 2026-05-01 11:56 | 48.54665 | 23.09102 | 14407 ft | 368 kts | 278° |
| 2026-05-01 11:56 | 48.55094 | 23.05265 | 13866 ft | 367 kts | 278° |
| 2026-05-01 11:56 | 48.55510 | 23.01519 | 13367 ft | 364 kts | 278° |
| 2026-05-01 11:57 | 48.55921 | 22.97744 | 12885 ft | 361 kts | 278° |
| 2026-05-01 11:57 | 48.56321 | 22.94017 | 12415 ft | 357 kts | 278° |
| 2026-05-01 11:57 | 48.56714 | 22.90324 | 11944 ft | 354 kts | 279° |
| 2026-05-01 11:57 | 48.57094 | 22.86715 | 11479 ft | 350 kts | 279° |
| 2026-05-01 11:58 | 48.57477 | 22.83066 | 11064 ft | 344 kts | 279° |
| 2026-05-01 11:58 | 48.57845 | 22.79551 | 10733 ft | 335 kts | 280° |
| 2026-05-01 11:58 | 48.58551 | 22.72797 | 10311 ft | 312 kts | 280° |
| 2026-05-01 11:59 | 48.58945 | 22.69759 | 10407 ft | 284 kts | 282° |
| 2026-05-01 11:59 | 48.59265 | 22.66810 | 10207 ft | 281 kts | 279° |
| 2026-05-01 11:59 | 48.59530 | 22.63909 | 10079 ft | 281 kts | 279° |
| 2026-05-01 12:00 | 48.60061 | 22.58261 | 9364 ft | 264 kts | 280° |
| 2026-05-01 12:00 | 48.60331 | 22.55522 | 9032 ft | 263 kts | 280° |
| 2026-05-01 12:00 | 48.60864 | 22.50218 | 8169 ft | 248 kts | 280° |
| 2026-05-01 12:01 | 48.61122 | 22.47659 | 7695 ft | 242 kts | 280° |
| 2026-05-01 12:01 | 48.61375 | 22.45178 | 7257 ft | 236 kts | 280° |
| 2026-05-01 12:01 | 48.61615 | 22.42784 | 6865 ft | 229 kts | 281° |
| 2026-05-01 12:01 | 48.61853 | 22.40418 | 6454 ft | 224 kts | 281° |
| 2026-05-01 12:02 | 48.62085 | 22.38125 | 6045 ft | 219 kts | 280° |
| 2026-05-01 12:02 | 48.62308 | 22.35902 | 5689 ft | 213 kts | 280° |
| 2026-05-01 12:02 | 48.62527 | 22.33682 | 5367 ft | 210 kts | 280° |
| 2026-05-01 12:02 | 48.62751 | 22.31488 | 5077 ft | 211 kts | 279° |
| 2026-05-01 12:03 | 48.62963 | 22.29333 | 4944 ft | 208 kts | 280° |
| 2026-05-01 12:03 | 48.63192 | 22.27155 | 4946 ft | 210 kts | 283° |
| 2026-05-01 12:03 | 48.63323 | 22.24951 | 4939 ft | 210 kts | 269° |
| 2026-05-01 12:03 | 48.63182 | 22.22763 | 4948 ft | 212 kts | 263° |
| 2026-05-01 12:04 | 48.62965 | 22.20610 | 4964 ft | 196 kts | 263° |
| 2026-05-01 12:04 | 48.62745 | 22.18635 | 5032 ft | 191 kts | 262° |
| 2026-05-01 12:04 | 48.62521 | 22.16644 | 5033 ft | 191 kts | 261° |
| 2026-05-01 12:04 | 48.62303 | 22.14646 | 5037 ft | 190 kts | 262° |
| 2026-05-01 12:05 | 48.62090 | 22.12683 | 5038 ft | 190 kts | 262° |
| 2026-05-01 12:05 | 48.61650 | 22.08620 | 4174 ft | 206 kts | 265° |
| 2026-05-01 12:05 | 48.61411 | 22.06467 | 3581 ft | 208 kts | 262° |
| 2026-05-01 12:06 | 48.61172 | 22.04355 | 3087 ft | 205 kts | 263° |
| 2026-05-01 12:06 | 48.61347 | 22.02305 | 2656 ft | 191 kts | 299° |
| 2026-05-01 12:06 | 48.62260 | 22.01048 | 2508 ft | 176 kts | 338° |
| 2026-05-01 12:06 | 48.63451 | 22.00554 | 2526 ft | 178 kts | 348° |
| 2026-05-01 12:07 | 48.64654 | 22.00170 | 2520 ft | 177 kts | 348° |
| 2026-05-01 12:07 | 48.65877 | 21.99807 | 2513 ft | 177 kts | 352° |
| 2026-05-01 12:07 | 48.67063 | 22.00123 | 2490 ft | 179 kts | 29° |
| 2026-05-01 12:07 | 48.67831 | 22.01607 | 2498 ft | 184 kts | 71° |
| 2026-05-01 12:08 | 48.67810 | 22.03424 | 2493 ft | 169 kts | 99° |
| 2026-05-01 12:08 | 48.67562 | 22.05108 | 2484 ft | 155 kts | 100° |
| 2026-05-01 12:08 | 48.67323 | 22.06676 | 2494 ft | 153 kts | 101° |
| 2026-05-01 12:08 | 48.67057 | 22.08238 | 2458 ft | 152 kts | 103° |
| 2026-05-01 12:09 | 48.66768 | 22.09767 | 2317 ft | 150 kts | 104° |
| 2026-05-01 12:09 | 48.66462 | 22.11269 | 2192 ft | 151 kts | 103° |
| 2026-05-01 12:09 | 48.66151 | 22.12782 | 2025 ft | 149 kts | 106° |
| 2026-05-01 12:09 | 48.65826 | 22.14288 | 1834 ft | 152 kts | 102° |
| 2026-05-01 12:10 | 48.65511 | 22.15803 | 1652 ft | 150 kts | 105° |
| 2026-05-01 12:10 | 48.64860 | 22.18818 | 1249 ft | 149 kts | 103° |
| 2026-05-01 12:10 | 48.64548 | 22.20299 | 1056 ft | 147 kts | 103° |
| 2026-05-01 12:11 | 48.63945 | 22.23232 | 694 ft | 144 kts | 102° |
| 2026-05-01 12:11 | 48.63697 | 22.24689 | 463 ft | 143 kts | 98° |
| 2026-05-01 12:11 | 48.63487 | 22.26076 | 392 ft | 114 kts | 101° |
| 2026-05-01 12:12 | 48.63385 | 22.26802 | 392 ft | 27 kts | 99° |
| 2026-05-01 12:12 | 48.63384 | 22.26846 | 392 ft | 0 kts | 84° |
| 2026-05-01 12:12 | 48.63385 | 22.26852 | 392 ft | 0 kts | 83° |
| 2026-05-01 12:12 | 48.63386 | 22.26861 | 392 ft | 0 kts | 69° |
| 2026-05-01 12:13 | 48.63391 | 22.26866 | 392 ft | 1 kts | 30° |
| 2026-05-01 12:13 | 48.63408 | 22.26881 | 392 ft | 3 kts | 30° |
| 2026-05-01 12:13 | 48.63434 | 22.26904 | 392 ft | 5 kts | 30° |
| 2026-05-01 12:13 | 48.63469 | 22.26939 | 392 ft | 6 kts | 37° |
| 2026-05-01 12:14 | 48.63512 | 22.26987 | 392 ft | 8 kts | 36° |
| 2026-05-01 12:14 | 48.63564 | 22.27043 | 392 ft | 9 kts | 28° |
| 2026-05-01 12:14 | 48.63627 | 22.27085 | 392 ft | 10 kts | 25° |
| 2026-05-01 12:14 | 48.63637 | 22.27092 | 392 ft | 0 kts | 25° |
| 2026-05-01 12:15 | 48.63640 | 22.27095 | 392 ft | 0 kts | 28° |
| 2026-05-01 12:15 | 48.63646 | 22.27108 | 392 ft | 5 kts | 68° |
| 2026-05-01 12:15 | 48.63675 | 22.27157 | 392 ft | 0 kts | 39° |
| 2026-05-01 12:15 | 48.63678 | 22.27160 | 392 ft | 0 kts | 39° |
| 2026-05-01 12:16 | 48.63684 | 22.27168 | 392 ft | 1 kts | 40° |
| 2026-05-01 12:16 | 48.63694 | 22.27174 | 392 ft | 1 kts | 7° |
| 2026-05-01 12:16 | 48.63705 | 22.27168 | 392 ft | 2 kts | 330° |
| 2026-05-01 12:16 | 48.63715 | 22.27155 | 392 ft | 0 kts | 313° |